sensor_id;sensor_type;location;lat;lon;timestamp;pressure;altitude;pressure_sealevel;temperature;humidity
79198;BME280;68628;48.714;9.472;2023-08-20T00:00:42;98422.28;;;20.83;84.81
79198;BME280;68628;48.714;9.472;2023-08-20T00:03:13;98424.28;;;20.76;85.28
79198;BME280;68628;48.714;9.472;2023-08-20T00:05:39;98421.59;;;20.76;85.29
79198;BME280;68628;48.714;9.472;2023-08-20T00:08:06;98426.00;;;20.82;84.89
79198;BME280;68628;48.714;9.472;2023-08-20T00:10:33;98426.84;;;20.71;85.08
79198;BME280;68628;48.714;9.472;2023-08-20T00:12:59;98419.97;;;20.63;86.04
79198;BME280;68628;48.714;9.472;2023-08-20T00:15:25;98412.63;;;20.70;85.64
79198;BME280;68628;48.714;9.472;2023-08-20T00:17:54;98415.53;;;20.80;85.08
79198;BME280;68628;48.714;9.472;2023-08-20T00:20:24;98419.03;;;20.81;84.92
79198;BME280;68628;48.714;9.472;2023-08-20T00:22:50;98418.44;;;20.79;84.94
79198;BME280;68628;48.714;9.472;2023-08-20T00:25:17;98414.03;;;20.73;85.27
79198;BME280;68628;48.714;9.472;2023-08-20T00:27:44;98422.41;;;20.64;85.30
79198;BME280;68628;48.714;9.472;2023-08-20T00:30:11;98423.31;;;20.58;85.90
79198;BME280;68628;48.714;9.472;2023-08-20T00:32:38;98417.66;;;20.55;86.10
79198;BME280;68628;48.714;9.472;2023-08-20T00:35:04;98426.59;;;20.60;85.56
79198;BME280;68628;48.714;9.472;2023-08-20T00:37:32;98425.44;;;20.56;85.72
79198;BME280;68628;48.714;9.472;2023-08-20T00:39:58;98431.47;;;20.52;85.92
79198;BME280;68628;48.714;9.472;2023-08-20T00:42:25;98427.88;;;20.46;86.36
79198;BME280;68628;48.714;9.472;2023-08-20T00:44:52;98429.16;;;20.43;86.32
79198;BME280;68628;48.714;9.472;2023-08-20T00:47:19;98431.28;;;20.41;86.34
79198;BME280;68628;48.714;9.472;2023-08-20T00:49:47;98436.41;;;20.43;86.47
79198;BME280;68628;48.714;9.472;2023-08-20T00:52:16;98437.78;;;20.34;86.79
79198;BME280;68628;48.714;9.472;2023-08-20T00:54:47;98439.75;;;20.38;86.50
79198;BME280;68628;48.714;9.472;2023-08-20T00:57:15;98434.88;;;20.47;86.05
79198;BME280;68628;48.714;9.472;2023-08-20T00:59:47;98429.53;;;20.35;86.41
79198;BME280;68628;48.714;9.472;2023-08-20T01:02:15;98430.09;;;20.25;86.86
79198;BME280;68628;48.714;9.472;2023-08-20T01:04:43;98433.97;;;20.29;86.76
79198;BME280;68628;48.714;9.472;2023-08-20T01:07:37;98433.13;;;20.29;86.80
79198;BME280;68628;48.714;9.472;2023-08-20T01:10:39;98436.50;;;20.36;86.18
79198;BME280;68628;48.714;9.472;2023-08-20T01:13:07;98437.44;;;20.30;86.45
79198;BME280;68628;48.714;9.472;2023-08-20T01:15:33;98435.44;;;20.25;86.66
79198;BME280;68628;48.714;9.472;2023-08-20T01:18:00;98437.44;;;20.18;87.12
79198;BME280;68628;48.714;9.472;2023-08-20T01:20:34;98434.75;;;20.18;87.10
79198;BME280;68628;48.714;9.472;2023-08-20T01:23:24;98435.09;;;20.10;87.49
79198;BME280;68628;48.714;9.472;2023-08-20T01:28:48;98437.66;;;19.93;88.09
79198;BME280;68628;48.714;9.472;2023-08-20T01:31:15;98442.75;;;19.94;88.12
79198;BME280;68628;48.714;9.472;2023-08-20T01:33:42;98438.44;;;19.93;88.04
79198;BME280;68628;48.714;9.472;2023-08-20T01:36:08;98440.81;;;20.02;87.78
79198;BME280;68628;48.714;9.472;2023-08-20T01:38:37;98448.38;;;20.28;86.73
79198;BME280;68628;48.714;9.472;2023-08-20T01:41:04;98456.16;;;20.30;85.99
79198;BME280;68628;48.714;9.472;2023-08-20T01:43:30;98460.22;;;20.09;87.20
79198;BME280;68628;48.714;9.472;2023-08-20T01:45:56;98453.34;;;20.13;86.84
79198;BME280;68628;48.714;9.472;2023-08-20T01:48:22;98459.97;;;19.98;87.50
79198;BME280;68628;48.714;9.472;2023-08-20T01:50:49;98456.50;;;19.98;87.13
79198;BME280;68628;48.714;9.472;2023-08-20T01:53:15;98459.41;;;19.96;87.14
79198;BME280;68628;48.714;9.472;2023-08-20T01:55:41;98460.19;;;19.85;88.00
79198;BME280;68628;48.714;9.472;2023-08-20T01:58:07;98450.31;;;19.97;87.50
79198;BME280;68628;48.714;9.472;2023-08-20T02:00:34;98452.66;;;20.06;86.48
79198;BME280;68628;48.714;9.472;2023-08-20T02:03:00;98455.44;;;19.99;86.70
79198;BME280;68628;48.714;9.472;2023-08-20T02:05:26;98457.63;;;19.90;87.20
79198;BME280;68628;48.714;9.472;2023-08-20T02:07:53;98457.06;;;20.00;86.95
79198;BME280;68628;48.714;9.472;2023-08-20T02:10:19;98456.16;;;20.06;86.65
79198;BME280;68628;48.714;9.472;2023-08-20T02:12:46;98453.69;;;19.93;87.43
79198;BME280;68628;48.714;9.472;2023-08-20T02:15:12;98454.22;;;19.83;87.92
79198;BME280;68628;48.714;9.472;2023-08-20T02:17:38;98452.22;;;19.78;88.72
79198;BME280;68628;48.714;9.472;2023-08-20T02:20:05;98455.94;;;19.77;88.61
79198;BME280;68628;48.714;9.472;2023-08-20T02:22:35;98460.13;;;19.73;88.92
79198;BME280;68628;48.714;9.472;2023-08-20T02:25:02;98456.97;;;19.76;89.32
79198;BME280;68628;48.714;9.472;2023-08-20T02:27:28;98456.66;;;19.73;89.11
79198;BME280;68628;48.714;9.472;2023-08-20T02:29:54;98450.03;;;19.75;88.80
79198;BME280;68628;48.714;9.472;2023-08-20T02:32:20;98453.72;;;19.74;88.88
79198;BME280;68628;48.714;9.472;2023-08-20T02:34:52;98456.50;;;19.68;89.35
79198;BME280;68628;48.714;9.472;2023-08-20T02:37:18;98460.91;;;19.62;89.33
79198;BME280;68628;48.714;9.472;2023-08-20T02:39:45;98452.06;;;19.61;88.83
79198;BME280;68628;48.714;9.472;2023-08-20T02:42:11;98467.19;;;19.68;88.74
79198;BME280;68628;48.714;9.472;2023-08-20T02:44:37;98459.41;;;19.66;89.23
79198;BME280;68628;48.714;9.472;2023-08-20T02:47:03;98459.97;;;19.68;88.92
79198;BME280;68628;48.714;9.472;2023-08-20T02:49:29;98460.81;;;19.69;88.43
79198;BME280;68628;48.714;9.472;2023-08-20T02:51:55;98459.28;;;19.61;89.10
79198;BME280;68628;48.714;9.472;2023-08-20T02:54:21;98459.72;;;19.58;89.13
79198;BME280;68628;48.714;9.472;2023-08-20T02:56:48;98457.88;;;19.58;88.64
79198;BME280;68628;48.714;9.472;2023-08-20T02:59:14;98457.97;;;19.52;88.84
79198;BME280;68628;48.714;9.472;2023-08-20T03:01:40;98457.22;;;19.44;89.16
79198;BME280;68628;48.714;9.472;2023-08-20T03:04:06;98454.31;;;19.46;89.15
79198;BME280;68628;48.714;9.472;2023-08-20T03:06:32;98460.00;;;19.38;89.58
79198;BME280;68628;48.714;9.472;2023-08-20T03:08:58;98454.09;;;19.36;89.48
79198;BME280;68628;48.714;9.472;2023-08-20T03:11:25;98456.44;;;19.44;88.79
79198;BME280;68628;48.714;9.472;2023-08-20T03:13:51;98458.06;;;19.45;88.70
79198;BME280;68628;48.714;9.472;2023-08-20T03:16:17;98462.00;;;19.42;88.53
79198;BME280;68628;48.714;9.472;2023-08-20T03:18:43;98458.69;;;19.28;89.01
79198;BME280;68628;48.714;9.472;2023-08-20T03:21:09;98454.97;;;19.29;89.29
79198;BME280;68628;48.714;9.472;2023-08-20T03:23:35;98449.50;;;19.24;89.03
79198;BME280;68628;48.714;9.472;2023-08-20T03:26:02;98445.94;;;19.30;88.74
79198;BME280;68628;48.714;9.472;2023-08-20T03:28:28;98448.97;;;19.15;89.62
79198;BME280;68628;48.714;9.472;2023-08-20T03:30:54;98444.38;;;19.23;89.49
79198;BME280;68628;48.714;9.472;2023-08-20T03:33:20;98442.50;;;19.23;89.50
79198;BME280;68628;48.714;9.472;2023-08-20T03:35:46;98439.03;;;19.23;89.78
79198;BME280;68628;48.714;9.472;2023-08-20T03:38:12;98440.72;;;19.36;89.19
79198;BME280;68628;48.714;9.472;2023-08-20T03:40:38;98449.03;;;19.27;88.95
79198;BME280;68628;48.714;9.472;2023-08-20T03:43:04;98450.22;;;19.31;88.20
79198;BME280;68628;48.714;9.472;2023-08-20T03:45:31;98445.94;;;19.30;88.86
79198;BME280;68628;48.714;9.472;2023-08-20T03:47:57;98451.34;;;19.24;89.21
79198;BME280;68628;48.714;9.472;2023-08-20T03:50:23;98441.94;;;19.21;89.68
79198;BME280;68628;48.714;9.472;2023-08-20T03:52:49;98446.91;;;19.18;89.64
79198;BME280;68628;48.714;9.472;2023-08-20T03:55:15;98445.50;;;19.15;89.64
79198;BME280;68628;48.714;9.472;2023-08-20T03:57:41;98453.66;;;19.20;89.11
79198;BME280;68628;48.714;9.472;2023-08-20T04:00:08;98454.47;;;19.21;89.18
79198;BME280;68628;48.714;9.472;2023-08-20T04:02:35;98453.88;;;19.19;89.22
79198;BME280;68628;48.714;9.472;2023-08-20T04:05:01;98460.28;;;18.99;90.08
79198;BME280;68628;48.714;9.472;2023-08-20T04:07:29;98467.97;;;19.07;89.67
79198;BME280;68628;48.714;9.472;2023-08-20T04:09:55;98475.03;;;19.02;90.02
79198;BME280;68628;48.714;9.472;2023-08-20T04:12:21;98471.63;;;18.94;90.17
79198;BME280;68628;48.714;9.472;2023-08-20T04:14:47;98473.97;;;18.84;90.82
79198;BME280;68628;48.714;9.472;2023-08-20T04:17:14;98460.50;;;18.97;90.95
79198;BME280;68628;48.714;9.472;2023-08-20T04:19:40;98458.13;;;19.08;90.22
79198;BME280;68628;48.714;9.472;2023-08-20T04:22:06;98445.66;;;19.02;90.81
79198;BME280;68628;48.714;9.472;2023-08-20T04:24:32;98451.31;;;19.12;90.50
79198;BME280;68628;48.714;9.472;2023-08-20T04:26:59;98448.97;;;19.15;89.61
79198;BME280;68628;48.714;9.472;2023-08-20T04:29:25;98448.44;;;19.25;88.80
79198;BME280;68628;48.714;9.472;2023-08-20T04:31:52;98457.38;;;19.01;89.00
79198;BME280;68628;48.714;9.472;2023-08-20T04:34:18;98452.34;;;18.92;89.66
79198;BME280;68628;48.714;9.472;2023-08-20T04:36:44;98457.31;;;19.07;89.33
79198;BME280;68628;48.714;9.472;2023-08-20T04:39:11;98459.47;;;18.98;89.55
79198;BME280;68628;48.714;9.472;2023-08-20T04:41:37;98469.06;;;18.81;90.24
79198;BME280;68628;48.714;9.472;2023-08-20T04:44:03;98469.78;;;18.95;89.41
79198;BME280;68628;48.714;9.472;2023-08-20T04:46:29;98475.84;;;19.02;89.62
79198;BME280;68628;48.714;9.472;2023-08-20T04:48:55;98482.53;;;19.11;88.54
79198;BME280;68628;48.714;9.472;2023-08-20T04:51:21;98486.00;;;18.75;90.81
79198;BME280;68628;48.714;9.472;2023-08-20T04:53:47;98482.13;;;18.71;91.31
79198;BME280;68628;48.714;9.472;2023-08-20T04:56:14;98472.41;;;18.76;91.98
79198;BME280;68628;48.714;9.472;2023-08-20T04:58:40;98469.81;;;18.70;92.53
79198;BME280;68628;48.714;9.472;2023-08-20T05:01:06;98456.13;;;19.03;90.74
79198;BME280;68628;48.714;9.472;2023-08-20T05:03:34;98471.19;;;19.16;89.98
79198;BME280;68628;48.714;9.472;2023-08-20T05:06:00;98474.88;;;19.15;89.49
79198;BME280;68628;48.714;9.472;2023-08-20T05:08:27;98468.28;;;19.18;89.75
79198;BME280;68628;48.714;9.472;2023-08-20T05:10:53;98475.34;;;19.12;89.38
79198;BME280;68628;48.714;9.472;2023-08-20T05:13:19;98475.59;;;19.22;89.35
79198;BME280;68628;48.714;9.472;2023-08-20T05:15:46;98480.66;;;19.30;88.70
79198;BME280;68628;48.714;9.472;2023-08-20T05:18:13;98475.94;;;19.44;88.25
79198;BME280;68628;48.714;9.472;2023-08-20T05:20:40;98484.75;;;19.63;86.80
79198;BME280;68628;48.714;9.472;2023-08-20T05:23:06;98485.03;;;19.55;86.57
79198;BME280;68628;48.714;9.472;2023-08-20T05:25:32;98491.59;;;19.59;86.84
79198;BME280;68628;48.714;9.472;2023-08-20T05:27:58;98498.00;;;19.40;88.11
79198;BME280;68628;48.714;9.472;2023-08-20T05:30:26;98491.31;;;19.49;87.79
79198;BME280;68628;48.714;9.472;2023-08-20T05:32:52;98489.53;;;19.73;86.28
79198;BME280;68628;48.714;9.472;2023-08-20T05:35:18;98502.84;;;19.61;87.33
79198;BME280;68628;48.714;9.472;2023-08-20T05:37:45;98504.84;;;19.85;86.30
79198;BME280;68628;48.714;9.472;2023-08-20T05:40:11;98505.09;;;20.07;84.58
79198;BME280;68628;48.714;9.472;2023-08-20T05:42:37;98502.44;;;20.07;83.92
79198;BME280;68628;48.714;9.472;2023-08-20T05:45:03;98506.41;;;20.16;83.79
79198;BME280;68628;48.714;9.472;2023-08-20T05:47:29;98492.06;;;19.98;84.42
79198;BME280;68628;48.714;9.472;2023-08-20T05:49:56;98494.03;;;19.91;85.50
79198;BME280;68628;48.714;9.472;2023-08-20T05:52:22;98484.78;;;20.18;84.41
79198;BME280;68628;48.714;9.472;2023-08-20T05:54:48;98480.84;;;20.20;84.69
79198;BME280;68628;48.714;9.472;2023-08-20T05:57:14;98469.06;;;20.21;85.16
79198;BME280;68628;48.714;9.472;2023-08-20T05:59:40;98472.88;;;20.13;86.60
79198;BME280;68628;48.714;9.472;2023-08-20T06:02:06;98470.56;;;20.05;87.29
79198;BME280;68628;48.714;9.472;2023-08-20T06:04:32;98473.72;;;20.14;87.32
79198;BME280;68628;48.714;9.472;2023-08-20T06:06:59;98487.56;;;20.35;86.80
79198;BME280;68628;48.714;9.472;2023-08-20T06:09:25;98494.09;;;20.74;84.67
79198;BME280;68628;48.714;9.472;2023-08-20T06:11:51;98492.69;;;20.84;83.90
79198;BME280;68628;48.714;9.472;2023-08-20T06:14:17;98499.56;;;20.91;83.78
79198;BME280;68628;48.714;9.472;2023-08-20T06:16:43;98506.56;;;21.45;81.90
79198;BME280;68628;48.714;9.472;2023-08-20T06:19:09;98517.34;;;21.91;79.45
79198;BME280;68628;48.714;9.472;2023-08-20T06:21:35;98527.59;;;21.94;79.55
79198;BME280;68628;48.714;9.472;2023-08-20T06:24:01;98521.75;;;22.31;77.92
79198;BME280;68628;48.714;9.472;2023-08-20T06:26:28;98520.19;;;22.86;74.75
79198;BME280;68628;48.714;9.472;2023-08-20T06:28:54;98517.13;;;23.66;71.67
79198;BME280;68628;48.714;9.472;2023-08-20T06:31:20;98507.53;;;23.75;70.85
79198;BME280;68628;48.714;9.472;2023-08-20T06:33:47;98512.00;;;23.65;70.34
79198;BME280;68628;48.714;9.472;2023-08-20T06:36:13;98507.91;;;23.84;70.10
79198;BME280;68628;48.714;9.472;2023-08-20T06:38:39;98517.84;;;24.11;68.92
79198;BME280;68628;48.714;9.472;2023-08-20T06:41:05;98510.53;;;24.06;70.63
79198;BME280;68628;48.714;9.472;2023-08-20T06:43:32;98513.22;;;24.39;68.39
79198;BME280;68628;48.714;9.472;2023-08-20T06:45:58;98515.13;;;24.06;69.20
79198;BME280;68628;48.714;9.472;2023-08-20T06:48:24;98515.72;;;24.51;68.61
79198;BME280;68628;48.714;9.472;2023-08-20T06:50:51;98522.03;;;25.15;66.26
79198;BME280;68628;48.714;9.472;2023-08-20T06:53:18;98519.69;;;25.28;65.51
79198;BME280;68628;48.714;9.472;2023-08-20T06:55:44;98521.94;;;25.52;63.81
79198;BME280;68628;48.714;9.472;2023-08-20T06:58:10;98527.75;;;26.23;61.29
79198;BME280;68628;48.714;9.472;2023-08-20T07:00:36;98529.34;;;26.08;62.80
79198;BME280;68628;48.714;9.472;2023-08-20T07:03:02;98531.28;;;24.76;67.28
79198;BME280;68628;48.714;9.472;2023-08-20T07:05:29;98527.25;;;25.32;65.29
79198;BME280;68628;48.714;9.472;2023-08-20T07:07:55;98531.56;;;24.74;67.05
79198;BME280;68628;48.714;9.472;2023-08-20T07:10:21;98529.91;;;24.41;67.74
79198;BME280;68628;48.714;9.472;2023-08-20T07:12:47;98531.41;;;25.02;66.19
79198;BME280;68628;48.714;9.472;2023-08-20T07:15:13;98540.50;;;24.85;66.38
79198;BME280;68628;48.714;9.472;2023-08-20T07:17:39;98530.06;;;24.94;66.19
79198;BME280;68628;48.714;9.472;2023-08-20T07:20:06;98528.97;;;25.58;63.86
79198;BME280;68628;48.714;9.472;2023-08-20T07:22:32;98535.59;;;24.77;67.24
79198;BME280;68628;48.714;9.472;2023-08-20T07:24:59;98531.16;;;24.60;68.08
79198;BME280;68628;48.714;9.472;2023-08-20T07:27:25;98542.19;;;25.02;66.62
79198;BME280;68628;48.714;9.472;2023-08-20T07:29:51;98539.63;;;26.32;61.97
79198;BME280;68628;48.714;9.472;2023-08-20T07:32:17;98536.09;;;26.57;61.46
79198;BME280;68628;48.714;9.472;2023-08-20T07:34:43;98539.31;;;26.80;61.21
79198;BME280;68628;48.714;9.472;2023-08-20T07:37:09;98545.22;;;27.73;59.33
79198;BME280;68628;48.714;9.472;2023-08-20T07:39:35;98549.31;;;26.85;60.14
79198;BME280;68628;48.714;9.472;2023-08-20T07:42:01;98553.22;;;24.90;67.55
79198;BME280;68628;48.714;9.472;2023-08-20T07:44:28;98545.81;;;26.64;62.39
79198;BME280;68628;48.714;9.472;2023-08-20T07:46:54;98545.56;;;26.14;63.90
79198;BME280;68628;48.714;9.472;2023-08-20T07:49:20;98551.25;;;26.74;62.31
79198;BME280;68628;48.714;9.472;2023-08-20T07:51:46;98553.06;;;27.70;58.75
79198;BME280;68628;48.714;9.472;2023-08-20T07:54:14;98550.34;;;27.75;59.68
79198;BME280;68628;48.714;9.472;2023-08-20T07:56:40;98556.31;;;27.72;59.32
79198;BME280;68628;48.714;9.472;2023-08-20T07:59:06;98546.16;;;27.48;60.32
79198;BME280;68628;48.714;9.472;2023-08-20T08:01:32;98549.72;;;27.38;60.46
79198;BME280;68628;48.714;9.472;2023-08-20T08:03:58;98561.34;;;27.44;61.37
79198;BME280;68628;48.714;9.472;2023-08-20T08:06:24;98561.19;;;27.75;59.21
79198;BME280;68628;48.714;9.472;2023-08-20T08:08:51;98566.19;;;28.37;59.18
79198;BME280;68628;48.714;9.472;2023-08-20T08:11:20;98564.28;;;27.98;58.67
79198;BME280;68628;48.714;9.472;2023-08-20T08:13:47;98563.28;;;27.28;61.16
79198;BME280;68628;48.714;9.472;2023-08-20T08:16:14;98556.38;;;27.62;59.84
79198;BME280;68628;48.714;9.472;2023-08-20T08:18:40;98560.13;;;27.71;58.88
79198;BME280;68628;48.714;9.472;2023-08-20T08:21:06;98565.72;;;27.24;61.01
79198;BME280;68628;48.714;9.472;2023-08-20T08:23:32;98562.03;;;26.64;62.43
79198;BME280;68628;48.714;9.472;2023-08-20T08:25:58;98567.84;;;27.93;58.77
79198;BME280;68628;48.714;9.472;2023-08-20T08:28:25;98561.59;;;29.20;55.67
79198;BME280;68628;48.714;9.472;2023-08-20T08:30:53;98562.63;;;29.49;55.22
79198;BME280;68628;48.714;9.472;2023-08-20T08:33:20;98558.34;;;29.18;55.84
79198;BME280;68628;48.714;9.472;2023-08-20T08:35:46;98566.34;;;30.15;53.44
79198;BME280;68628;48.714;9.472;2023-08-20T08:38:12;98559.09;;;29.91;53.95
79198;BME280;68628;48.714;9.472;2023-08-20T08:40:40;98554.59;;;29.14;55.59
79198;BME280;68628;48.714;9.472;2023-08-20T08:43:10;98555.31;;;29.01;57.15
79198;BME280;68628;48.714;9.472;2023-08-20T08:45:45;98557.13;;;29.35;56.42
79198;BME280;68628;48.714;9.472;2023-08-20T08:48:16;98560.56;;;29.40;55.65
79198;BME280;68628;48.714;9.472;2023-08-20T08:50:44;98557.72;;;29.94;53.75
79198;BME280;68628;48.714;9.472;2023-08-20T08:53:13;98554.19;;;29.50;55.69
79198;BME280;68628;48.714;9.472;2023-08-20T08:55:39;98550.34;;;29.75;54.70
79198;BME280;68628;48.714;9.472;2023-08-20T08:58:06;98551.66;;;30.16;53.46
79198;BME280;68628;48.714;9.472;2023-08-20T09:00:32;98557.16;;;30.77;52.35
79198;BME280;68628;48.714;9.472;2023-08-20T09:02:58;98556.53;;;30.52;52.72
79198;BME280;68628;48.714;9.472;2023-08-20T09:05:25;98552.69;;;30.53;53.37
79198;BME280;68628;48.714;9.472;2023-08-20T09:07:57;98560.03;;;30.20;53.86
79198;BME280;68628;48.714;9.472;2023-08-20T09:10:27;98564.66;;;30.85;53.10
79198;BME280;68628;48.714;9.472;2023-08-20T09:12:54;98557.47;;;31.73;50.11
79198;BME280;68628;48.714;9.472;2023-08-20T09:15:31;98554.78;;;30.89;51.34
79198;BME280;68628;48.714;9.472;2023-08-20T09:18:01;98555.41;;;31.14;51.15
79198;BME280;68628;48.714;9.472;2023-08-20T09:20:37;98561.25;;;31.21;50.50
79198;BME280;68628;48.714;9.472;2023-08-20T09:23:13;98555.69;;;31.40;50.46
79198;BME280;68628;48.714;9.472;2023-08-20T09:25:39;98560.81;;;31.42;49.91
79198;BME280;68628;48.714;9.472;2023-08-20T09:28:05;98550.94;;;30.90;51.67
79198;BME280;68628;48.714;9.472;2023-08-20T09:30:32;98559.53;;;31.67;49.44
79198;BME280;68628;48.714;9.472;2023-08-20T09:33:11;98560.13;;;32.46;48.15
79198;BME280;68628;48.714;9.472;2023-08-20T09:35:49;98559.91;;;32.34;46.46
79198;BME280;68628;48.714;9.472;2023-08-20T09:38:19;98560.53;;;31.44;48.77
79198;BME280;68628;48.714;9.472;2023-08-20T09:40:51;98557.38;;;30.81;50.01
79198;BME280;68628;48.714;9.472;2023-08-20T09:43:24;98556.94;;;31.06;48.92
79198;BME280;68628;48.714;9.472;2023-08-20T09:45:55;98561.13;;;31.54;46.66
79198;BME280;68628;48.714;9.472;2023-08-20T09:48:24;98556.41;;;31.18;47.59
79198;BME280;68628;48.714;9.472;2023-08-20T09:50:59;98560.47;;;31.85;46.71
79198;BME280;68628;48.714;9.472;2023-08-20T09:53:31;98555.66;;;31.82;47.29
79198;BME280;68628;48.714;9.472;2023-08-20T09:56:18;98552.91;;;31.82;45.28
79198;BME280;68628;48.714;9.472;2023-08-20T09:58:48;98545.16;;;32.66;44.51
79198;BME280;68628;48.714;9.472;2023-08-20T10:01:16;98545.66;;;33.49;43.38
79198;BME280;68628;48.714;9.472;2023-08-20T10:03:43;98545.00;;;34.48;40.95
79198;BME280;68628;48.714;9.472;2023-08-20T10:06:10;98538.94;;;34.08;41.60
79198;BME280;68628;48.714;9.472;2023-08-20T10:08:37;98543.28;;;34.82;39.64
79198;BME280;68628;48.714;9.472;2023-08-20T10:11:04;98540.88;;;34.33;42.18
79198;BME280;68628;48.714;9.472;2023-08-20T10:13:30;98546.97;;;35.34;40.32
79198;BME280;68628;48.714;9.472;2023-08-20T10:15:57;98533.34;;;34.69;41.04
79198;BME280;68628;48.714;9.472;2023-08-20T10:18:24;98540.28;;;35.44;39.13
79198;BME280;68628;48.714;9.472;2023-08-20T10:20:51;98532.78;;;34.54;40.82
79198;BME280;68628;48.714;9.472;2023-08-20T10:23:21;98540.22;;;34.36;39.94
79198;BME280;68628;48.714;9.472;2023-08-20T10:25:54;98539.66;;;32.80;43.38
79198;BME280;68628;48.714;9.472;2023-08-20T10:28:56;98531.53;;;34.34;39.61
79198;BME280;68628;48.714;9.472;2023-08-20T10:45:35;98532.34;;;34.82;39.48
79198;BME280;68628;48.714;9.472;2023-08-20T11:10:10;98534.47;;;35.66;37.45
79198;BME280;68628;48.714;9.472;2023-08-20T11:12:37;98529.44;;;34.40;39.64
79198;BME280;68628;48.714;9.472;2023-08-20T11:15:04;98529.91;;;36.13;37.53
79198;BME280;68628;48.714;9.472;2023-08-20T11:17:30;98515.09;;;36.26;37.61
79198;BME280;68628;48.714;9.472;2023-08-20T11:19:56;98516.34;;;37.49;34.85
79198;BME280;68628;48.714;9.472;2023-08-20T11:22:22;98515.56;;;35.52;37.73
79198;BME280;68628;48.714;9.472;2023-08-20T11:24:48;98515.03;;;35.80;37.41
79198;BME280;68628;48.714;9.472;2023-08-20T11:27:14;98508.00;;;37.33;35.61
79198;BME280;68628;48.714;9.472;2023-08-20T11:29:44;98519.44;;;35.94;38.11
79198;BME280;68628;48.714;9.472;2023-08-20T11:32:10;98515.06;;;36.14;36.96
79198;BME280;68628;48.714;9.472;2023-08-20T11:34:37;98503.56;;;34.76;39.68
79198;BME280;68628;48.714;9.472;2023-08-20T11:37:06;98500.06;;;34.97;39.39
79198;BME280;68628;48.714;9.472;2023-08-20T11:39:32;98501.88;;;35.74;38.59
79198;BME280;68628;48.714;9.472;2023-08-20T11:41:58;98495.84;;;35.08;39.21
79198;BME280;68628;48.714;9.472;2023-08-20T11:44:24;98488.94;;;33.90;41.17
79198;BME280;68628;48.714;9.472;2023-08-20T11:46:51;98494.81;;;33.21;42.41
79198;BME280;68628;48.714;9.472;2023-08-20T11:49:27;98487.41;;;33.22;42.68
79198;BME280;68628;48.714;9.472;2023-08-20T11:51:56;98495.59;;;33.13;42.38
79198;BME280;68628;48.714;9.472;2023-08-20T11:54:22;98480.28;;;33.87;40.75
79198;BME280;68628;48.714;9.472;2023-08-20T11:56:52;98488.25;;;34.75;40.44
79198;BME280;68628;48.714;9.472;2023-08-20T11:59:21;98490.09;;;32.96;43.22
79198;BME280;68628;48.714;9.472;2023-08-20T12:02:02;98488.06;;;33.19;42.78
79198;BME280;68628;48.714;9.472;2023-08-20T12:04:30;98483.47;;;33.37;41.92
79198;BME280;68628;48.714;9.472;2023-08-20T12:07:13;98486.81;;;33.78;42.74
79198;BME280;68628;48.714;9.472;2023-08-20T12:09:40;98483.72;;;33.09;41.05
79198;BME280;68628;48.714;9.472;2023-08-20T12:12:08;98489.59;;;33.86;40.25
79198;BME280;68628;48.714;9.472;2023-08-20T12:14:35;98482.56;;;34.50;39.02
79198;BME280;68628;48.714;9.472;2023-08-20T12:17:02;98481.34;;;35.08;38.76
79198;BME280;68628;48.714;9.472;2023-08-20T12:19:31;98473.56;;;34.89;37.97
79198;BME280;68628;48.714;9.472;2023-08-20T12:21:57;98474.06;;;34.82;38.34
79198;BME280;68628;48.714;9.472;2023-08-20T12:24:23;98471.22;;;34.69;37.48
79198;BME280;68628;48.714;9.472;2023-08-20T12:26:51;98473.34;;;35.02;36.55
79198;BME280;68628;48.714;9.472;2023-08-20T12:29:18;98462.94;;;34.78;36.94
79198;BME280;68628;48.714;9.472;2023-08-20T12:31:45;98462.25;;;34.99;37.34
79198;BME280;68628;48.714;9.472;2023-08-20T12:34:11;98456.97;;;34.46;37.82
79198;BME280;68628;48.714;9.472;2023-08-20T12:36:37;98462.19;;;34.39;38.94
79198;BME280;68628;48.714;9.472;2023-08-20T12:39:04;98465.47;;;35.01;38.99
79198;BME280;68628;48.714;9.472;2023-08-20T12:41:31;98461.69;;;35.78;37.70
79198;BME280;68628;48.714;9.472;2023-08-20T12:43:57;98447.75;;;34.98;39.02
79198;BME280;68628;48.714;9.472;2023-08-20T12:46:23;98452.53;;;34.33;40.02
79198;BME280;68628;48.714;9.472;2023-08-20T12:48:53;98443.78;;;34.48;39.38
79198;BME280;68628;48.714;9.472;2023-08-20T12:51:20;98451.63;;;34.02;39.97
79198;BME280;68628;48.714;9.472;2023-08-20T12:53:46;98446.34;;;34.53;38.80
79198;BME280;68628;48.714;9.472;2023-08-20T12:56:12;98440.06;;;34.53;38.51
79198;BME280;68628;48.714;9.472;2023-08-20T12:58:39;98439.19;;;34.31;38.90
79198;BME280;68628;48.714;9.472;2023-08-20T13:01:06;98438.66;;;34.77;39.00
79198;BME280;68628;48.714;9.472;2023-08-20T13:03:32;98431.94;;;34.27;39.56
79198;BME280;68628;48.714;9.472;2023-08-20T13:05:59;98425.78;;;33.82;40.15
79198;BME280;68628;48.714;9.472;2023-08-20T13:08:26;98427.81;;;34.59;40.34
79198;BME280;68628;48.714;9.472;2023-08-20T13:10:54;98430.91;;;35.09;40.94
79198;BME280;68628;48.714;9.472;2023-08-20T13:13:23;98429.88;;;35.64;39.30
79198;BME280;68628;48.714;9.472;2023-08-20T13:15:51;98426.81;;;35.99;38.32
79198;BME280;68628;48.714;9.472;2023-08-20T13:18:18;98421.06;;;34.57;39.00
79198;BME280;68628;48.714;9.472;2023-08-20T13:20:47;98426.53;;;35.38;39.10
79198;BME280;68628;48.714;9.472;2023-08-20T13:23:13;98428.47;;;35.16;39.12
79198;BME280;68628;48.714;9.472;2023-08-20T13:25:39;98426.78;;;35.87;38.04
79198;BME280;68628;48.714;9.472;2023-08-20T13:28:05;98441.00;;;36.14;38.42
79198;BME280;68628;48.714;9.472;2023-08-20T13:30:37;98431.81;;;35.64;37.19
79198;BME280;68628;48.714;9.472;2023-08-20T13:33:04;98423.31;;;35.78;38.89
79198;BME280;68628;48.714;9.472;2023-08-20T13:35:30;98428.00;;;36.23;36.23
79198;BME280;68628;48.714;9.472;2023-08-20T13:37:56;98416.91;;;36.19;36.33
79198;BME280;68628;48.714;9.472;2023-08-20T13:40:23;98418.03;;;36.18;36.98